sensor_id;sensor_type;location;lat;lon;timestamp;pressure;altitude;pressure_sealevel;temperature;humidity
17230;BME280;8731;50.364;8.958;2022-11-15T00:02:23;99782.00;;;9.28;92.41
17230;BME280;8731;50.364;8.958;2022-11-15T00:07:04;99782.41;;;9.33;92.02
17230;BME280;8731;50.364;8.958;2022-11-15T00:11:45;99778.44;;;9.26;91.64
17230;BME280;8731;50.364;8.958;2022-11-15T00:16:27;99772.09;;;9.31;92.35
17230;BME280;8731;50.364;8.958;2022-11-15T00:21:11;99771.50;;;9.34;92.55
17230;BME280;8731;50.364;8.958;2022-11-15T00:25:57;99768.25;;;9.26;93.15
17230;BME280;8731;50.364;8.958;2022-11-15T00:30:38;99767.66;;;9.29;93.48
17230;BME280;8731;50.364;8.958;2022-11-15T00:35:20;99774.50;;;9.30;93.14
17230;BME280;8731;50.364;8.958;2022-11-15T00:40:02;99761.69;;;9.28;93.40
17230;BME280;8731;50.364;8.958;2022-11-15T00:44:43;99754.31;;;9.31;93.12
17230;BME280;8731;50.364;8.958;2022-11-15T00:49:23;99746.69;;;9.31;92.67
17230;BME280;8731;50.364;8.958;2022-11-15T00:54:06;99751.81;;;9.22;92.89
17230;BME280;8731;50.364;8.958;2022-11-15T00:58:47;99744.22;;;9.22;93.25
17230;BME280;8731;50.364;8.958;2022-11-15T01:03:27;99741.66;;;9.22;92.91
17230;BME280;8731;50.364;8.958;2022-11-15T01:08:12;99743.19;;;9.20;92.78
17230;BME280;8731;50.364;8.958;2022-11-15T01:12:55;99741.25;;;9.18;93.13
17230;BME280;8731;50.364;8.958;2022-11-15T01:17:37;99736.59;;;9.22;92.90
17230;BME280;8731;50.364;8.958;2022-11-15T01:22:18;99743.19;;;9.20;92.97
17230;BME280;8731;50.364;8.958;2022-11-15T01:26:58;99744.97;;;9.21;93.88
17230;BME280;8731;50.364;8.958;2022-11-15T01:31:40;99737.78;;;9.26;93.00
17230;BME280;8731;50.364;8.958;2022-11-15T01:36:22;99744.38;;;9.24;93.80
17230;BME280;8731;50.364;8.958;2022-11-15T01:41:03;99739.84;;;9.30;93.54
17230;BME280;8731;50.364;8.958;2022-11-15T01:45:47;99739.34;;;9.34;93.40
17230;BME280;8731;50.364;8.958;2022-11-15T01:50:34;99737.09;;;9.37;93.39
17230;BME280;8731;50.364;8.958;2022-11-15T01:55:19;99731.38;;;9.40;93.82
17230;BME280;8731;50.364;8.958;2022-11-15T02:00:03;99720.72;;;9.44;93.44
17230;BME280;8731;50.364;8.958;2022-11-15T02:04:47;99711.91;;;9.49;93.31
17230;BME280;8731;50.364;8.958;2022-11-15T02:09:30;99701.13;;;9.51;93.36
17230;BME280;8731;50.364;8.958;2022-11-15T02:14:11;99697.19;;;9.55;92.81
17230;BME280;8731;50.364;8.958;2022-11-15T02:19:00;99693.25;;;9.59;92.68
17230;BME280;8731;50.364;8.958;2022-11-15T02:29:37;99675.81;;;9.72;93.30
17230;BME280;8731;50.364;8.958;2022-11-15T02:34:41;99670.34;;;9.77;93.12
17230;BME280;8731;50.364;8.958;2022-11-15T02:39:35;99664.28;;;9.85;93.42
17230;BME280;8731;50.364;8.958;2022-11-15T02:44:24;99666.31;;;9.90;93.61
17230;BME280;8731;50.364;8.958;2022-11-15T02:49:11;99670.44;;;9.98;94.10
17230;BME280;8731;50.364;8.958;2022-11-15T02:53:56;99659.91;;;10.03;93.43
17230;BME280;8731;50.364;8.958;2022-11-15T02:59:00;99657.88;;;10.09;93.33
17230;BME280;8731;50.364;8.958;2022-11-15T03:03:59;99665.13;;;10.15;93.15
17230;BME280;8731;50.364;8.958;2022-11-15T03:09:03;99659.72;;;10.21;93.69
17230;BME280;8731;50.364;8.958;2022-11-15T03:13:54;99649.94;;;10.25;93.49
17230;BME280;8731;50.364;8.958;2022-11-15T03:18:40;99647.78;;;10.30;93.04
17230;BME280;8731;50.364;8.958;2022-11-15T03:23:23;99642.31;;;10.35;93.12
17230;BME280;8731;50.364;8.958;2022-11-15T03:28:09;99631.63;;;10.39;92.81
17230;BME280;8731;50.364;8.958;2022-11-15T03:32:57;99640.44;;;10.43;92.33
17230;BME280;8731;50.364;8.958;2022-11-15T03:37:43;99635.47;;;10.44;92.11
17230;BME280;8731;50.364;8.958;2022-11-15T03:42:32;99633.69;;;10.43;92.21
17230;BME280;8731;50.364;8.958;2022-11-15T03:47:21;99639.56;;;10.42;92.30
17230;BME280;8731;50.364;8.958;2022-11-15T03:52:07;99649.94;;;10.35;91.90
17230;BME280;8731;50.364;8.958;2022-11-15T03:56:49;99652.09;;;10.31;92.10
17230;BME280;8731;50.364;8.958;2022-11-15T04:01:30;99654.78;;;10.32;92.32
17230;BME280;8731;50.364;8.958;2022-11-15T04:06:12;99646.88;;;10.29;91.94
17230;BME280;8731;50.364;8.958;2022-11-15T04:10:53;99648.81;;;10.32;91.89
17230;BME280;8731;50.364;8.958;2022-11-15T04:15:34;99642.81;;;10.21;92.49
17230;BME280;8731;50.364;8.958;2022-11-15T04:20:16;99641.16;;;10.22;91.91
17230;BME280;8731;50.364;8.958;2022-11-15T04:25:18;99652.69;;;10.18;91.64
17230;BME280;8731;50.364;8.958;2022-11-15T04:29:58;99647.19;;;10.13;91.72
17230;BME280;8731;50.364;8.958;2022-11-15T04:34:39;99640.97;;;10.10;91.51
17230;BME280;8731;50.364;8.958;2022-11-15T04:39:20;99637.13;;;10.05;91.95
17230;BME280;8731;50.364;8.958;2022-11-15T04:44:02;99631.53;;;9.99;91.35
17230;BME280;8731;50.364;8.958;2022-11-15T04:48:43;99637.38;;;9.98;91.88
17230;BME280;8731;50.364;8.958;2022-11-15T04:53:23;99633.06;;;9.97;91.20
17230;BME280;8731;50.364;8.958;2022-11-15T04:58:04;99634.72;;;9.96;91.73
17230;BME280;8731;50.364;8.958;2022-11-15T05:02:46;99627.03;;;9.86;92.29
17230;BME280;8731;50.364;8.958;2022-11-15T05:07:45;99622.22;;;9.89;92.31
17230;BME280;8731;50.364;8.958;2022-11-15T05:12:25;99621.44;;;9.90;92.24
17230;BME280;8731;50.364;8.958;2022-11-15T05:17:06;99617.25;;;9.91;92.28
17230;BME280;8731;50.364;8.958;2022-11-15T05:21:48;99618.13;;;9.91;92.01
17230;BME280;8731;50.364;8.958;2022-11-15T05:26:29;99615.88;;;9.94;92.19
17230;BME280;8731;50.364;8.958;2022-11-15T05:31:11;99609.09;;;9.74;93.87
17230;BME280;8731;50.364;8.958;2022-11-15T05:35:57;99607.72;;;9.88;93.19
17230;BME280;8731;50.364;8.958;2022-11-15T05:40:43;99604.78;;;9.83;93.77
17230;BME280;8731;50.364;8.958;2022-11-15T05:45:24;99605.28;;;9.90;93.80
17230;BME280;8731;50.364;8.958;2022-11-15T05:50:06;99605.56;;;9.93;93.87
17230;BME280;8731;50.364;8.958;2022-11-15T05:54:50;99599.25;;;9.98;92.98
17230;BME280;8731;50.364;8.958;2022-11-15T05:59:33;99598.56;;;9.90;93.46
17230;BME280;8731;50.364;8.958;2022-11-15T06:04:15;99599.97;;;9.87;94.28
17230;BME280;8731;50.364;8.958;2022-11-15T06:08:56;99589.16;;;9.89;93.96
17230;BME280;8731;50.364;8.958;2022-11-15T06:13:37;99589.91;;;9.88;93.01
17230;BME280;8731;50.364;8.958;2022-11-15T06:18:19;99596.78;;;9.89;92.73
17230;BME280;8731;50.364;8.958;2022-11-15T06:23:01;99604.78;;;9.83;92.77
17230;BME280;8731;50.364;8.958;2022-11-15T06:27:44;99599.69;;;9.83;92.70
17230;BME280;8731;50.364;8.958;2022-11-15T06:32:30;99609.09;;;9.74;93.07
17230;BME280;8731;50.364;8.958;2022-11-15T06:37:12;99609.47;;;9.79;92.82
17230;BME280;8731;50.364;8.958;2022-11-15T06:41:53;99612.91;;;9.79;92.83
17230;BME280;8731;50.364;8.958;2022-11-15T06:46:34;99625.13;;;9.83;92.49
17230;BME280;8731;50.364;8.958;2022-11-15T06:51:15;99610.63;;;9.82;92.29
17230;BME280;8731;50.364;8.958;2022-11-15T06:55:59;99612.03;;;9.89;92.96
17230;BME280;8731;50.364;8.958;2022-11-15T07:00:41;99611.53;;;9.93;92.43
17230;BME280;8731;50.364;8.958;2022-11-15T07:05:22;99613.72;;;9.99;92.77
17230;BME280;8731;50.364;8.958;2022-11-15T07:10:04;99619.22;;;10.03;93.21
17230;BME280;8731;50.364;8.958;2022-11-15T07:14:47;99626.72;;;10.12;92.62
17230;BME280;8731;50.364;8.958;2022-11-15T07:19:29;99633.38;;;10.20;92.33
17230;BME280;8731;50.364;8.958;2022-11-15T07:24:10;99621.97;;;10.25;92.33
17230;BME280;8731;50.364;8.958;2022-11-15T07:28:50;99630.22;;;10.33;92.27
17230;BME280;8731;50.364;8.958;2022-11-15T07:33:33;99623.22;;;10.40;92.30
17230;BME280;8731;50.364;8.958;2022-11-15T07:38:14;99614.09;;;10.42;93.17
17230;BME280;8731;50.364;8.958;2022-11-15T07:43:01;99624.66;;;10.57;92.96
17230;BME280;8731;50.364;8.958;2022-11-15T07:47:45;99628.59;;;10.64;93.05
17230;BME280;8731;50.364;8.958;2022-11-15T07:52:28;99624.13;;;10.82;93.02
17230;BME280;8731;50.364;8.958;2022-11-15T07:57:08;99626.28;;;10.97;92.61
17230;BME280;8731;50.364;8.958;2022-11-15T08:01:49;99629.81;;;11.10;93.22
17230;BME280;8731;50.364;8.958;2022-11-15T08:06:30;99621.66;;;11.24;92.43
17230;BME280;8731;50.364;8.958;2022-11-15T08:11:12;99621.50;;;11.32;92.59
17230;BME280;8731;50.364;8.958;2022-11-15T08:15:57;99605.09;;;11.61;92.46
17230;BME280;8731;50.364;8.958;2022-11-15T08:20:38;99600.31;;;11.86;92.64
17230;BME280;8731;50.364;8.958;2022-11-15T08:25:20;99599.56;;;12.20;92.05
17230;BME280;8731;50.364;8.958;2022-11-15T08:30:02;99590.50;;;12.69;90.98
17230;BME280;8731;50.364;8.958;2022-11-15T08:34:44;99593.56;;;12.99;89.98
17230;BME280;8731;50.364;8.958;2022-11-15T08:39:25;99583.25;;;13.20;88.69
17230;BME280;8731;50.364;8.958;2022-11-15T08:44:05;99570.25;;;13.52;88.27
17230;BME280;8731;50.364;8.958;2022-11-15T08:48:47;99576.31;;;13.66;87.33
17230;BME280;8731;50.364;8.958;2022-11-15T08:53:28;99579.38;;;13.97;86.25
17230;BME280;8731;50.364;8.958;2022-11-15T08:58:09;99578.75;;;14.13;85.75
17230;BME280;8731;50.364;8.958;2022-11-15T09:02:49;99576.94;;;14.24;85.67
17230;BME280;8731;50.364;8.958;2022-11-15T09:07:31;99575.38;;;14.26;84.12
17230;BME280;8731;50.364;8.958;2022-11-15T09:12:12;99568.38;;;14.23;83.32
17230;BME280;8731;50.364;8.958;2022-11-15T09:16:53;99565.94;;;14.13;83.42
17230;BME280;8731;50.364;8.958;2022-11-15T09:21:34;99561.78;;;14.02;82.64
17230;BME280;8731;50.364;8.958;2022-11-15T09:26:18;99557.53;;;14.02;83.27
17230;BME280;8731;50.364;8.958;2022-11-15T09:30:59;99555.56;;;13.98;82.94
17230;BME280;8731;50.364;8.958;2022-11-15T09:35:41;99560.22;;;13.92;82.93
17230;BME280;8731;50.364;8.958;2022-11-15T09:40:23;99563.38;;;13.88;82.56
17230;BME280;8731;50.364;8.958;2022-11-15T09:45:14;99559.91;;;13.99;82.25
17230;BME280;8731;50.364;8.958;2022-11-15T09:50:01;99553.03;;;14.11;81.18
17230;BME280;8731;50.364;8.958;2022-11-15T09:54:33;99544.66;;;14.39;80.67
17230;BME280;8731;50.364;8.958;2022-11-15T09:59:04;99550.44;;;15.39;79.01
17230;BME280;8731;50.364;8.958;2022-11-15T10:03:40;99536.53;;;15.90;77.47
17230;BME280;8731;50.364;8.958;2022-11-15T10:08:06;99522.69;;;16.16;74.30
17230;BME280;8731;50.364;8.958;2022-11-15T10:12:48;99523.38;;;16.71;73.55
17230;BME280;8731;50.364;8.958;2022-11-15T10:17:44;99524.63;;;16.92;70.72
17230;BME280;8731;50.364;8.958;2022-11-15T10:22:26;99511.28;;;17.45;70.01
17230;BME280;8731;50.364;8.958;2022-11-15T10:26:54;99506.88;;;18.06;69.51
17230;BME280;8731;50.364;8.958;2022-11-15T10:31:22;99498.88;;;18.18;68.17
17230;BME280;8731;50.364;8.958;2022-11-15T10:35:46;99488.63;;;18.35;66.87
17230;BME280;8731;50.364;8.958;2022-11-15T10:40:16;99500.25;;;18.27;65.70
17230;BME280;8731;50.364;8.958;2022-11-15T10:44:42;99494.19;;;18.61;65.40
17230;BME280;8731;50.364;8.958;2022-11-15T10:49:14;99481.16;;;18.58;64.99
17230;BME280;8731;50.364;8.958;2022-11-15T10:53:43;99474.47;;;18.61;64.40
17230;BME280;8731;50.364;8.958;2022-11-15T10:58:27;99474.28;;;18.40;64.17
17230;BME280;8731;50.364;8.958;2022-11-15T11:02:58;99465.31;;;18.16;65.57
17230;BME280;8731;50.364;8.958;2022-11-15T11:07:24;99472.56;;;18.07;64.66
17230;BME280;8731;50.364;8.958;2022-11-15T11:11:49;99469.59;;;17.99;65.17
17230;BME280;8731;50.364;8.958;2022-11-15T11:16:44;99463.19;;;17.75;65.87
17230;BME280;8731;50.364;8.958;2022-11-15T11:21:15;99443.13;;;17.69;65.58
17230;BME280;8731;50.364;8.958;2022-11-15T11:25:49;99442.38;;;17.56;65.84
17230;BME280;8731;50.364;8.958;2022-11-15T11:30:19;99437.53;;;16.98;67.57
17230;BME280;8731;50.364;8.958;2022-11-15T11:34:54;99442.34;;;16.77;65.84
17230;BME280;8731;50.364;8.958;2022-11-15T11:39:30;99435.53;;;16.63;68.05
17230;BME280;8731;50.364;8.958;2022-11-15T11:44:13;99429.22;;;16.87;69.44
17230;BME280;8731;50.364;8.958;2022-11-15T11:48:48;99419.59;;;16.10;70.47
17230;BME280;8731;50.364;8.958;2022-11-15T11:53:22;99422.69;;;16.48;70.19
17230;BME280;8731;50.364;8.958;2022-11-15T11:57:55;99410.81;;;15.35;69.05
17230;BME280;8731;50.364;8.958;2022-11-15T12:02:28;99390.59;;;14.99;71.53
17230;BME280;8731;50.364;8.958;2022-11-15T12:06:58;99392.28;;;15.40;71.92
17230;BME280;8731;50.364;8.958;2022-11-15T12:11:29;99385.16;;;15.91;70.72
17230;BME280;8731;50.364;8.958;2022-11-15T12:16:06;99381.94;;;15.81;70.17
17230;BME280;8731;50.364;8.958;2022-11-15T12:20:35;99380.16;;;15.65;70.36
17230;BME280;8731;50.364;8.958;2022-11-15T12:25:03;99366.19;;;15.89;71.42
17230;BME280;8731;50.364;8.958;2022-11-15T12:29:35;99366.81;;;16.00;71.89
17230;BME280;8731;50.364;8.958;2022-11-15T12:34:02;99358.03;;;15.67;72.11
17230;BME280;8731;50.364;8.958;2022-11-15T12:38:56;99349.28;;;15.78;71.83
17230;BME280;8731;50.364;8.958;2022-11-15T12:43:37;99341.38;;;15.60;71.26
17230;BME280;8731;50.364;8.958;2022-11-15T12:53:37;99312.25;;;16.19;70.46
17230;BME280;8731;50.364;8.958;2022-11-15T12:58:26;99318.25;;;16.34;70.65
17230;BME280;8731;50.364;8.958;2022-11-15T13:03:17;99318.81;;;16.14;69.03
17230;BME280;8731;50.364;8.958;2022-11-15T13:07:57;99315.31;;;16.28;70.57
17230;BME280;8731;50.364;8.958;2022-11-15T13:12:52;99316.25;;;16.14;71.57
17230;BME280;8731;50.364;8.958;2022-11-15T13:17:24;99312.19;;;16.03;72.42
17230;BME280;8731;50.364;8.958;2022-11-15T13:21:53;99306.50;;;16.08;71.21
17230;BME280;8731;50.364;8.958;2022-11-15T13:26:33;99293.31;;;16.17;71.67
17230;BME280;8731;50.364;8.958;2022-11-15T13:30:59;99284.19;;;16.07;71.26
17230;BME280;8731;50.364;8.958;2022-11-15T13:35:25;99291.13;;;15.93;73.61
17230;BME280;8731;50.364;8.958;2022-11-15T13:39:49;99287.66;;;15.93;72.34
17230;BME280;8731;50.364;8.958;2022-11-15T13:44:19;99282.06;;;16.00;72.17
17230;BME280;8731;50.364;8.958;2022-11-15T13:48:46;99271.63;;;15.97;71.79
17230;BME280;8731;50.364;8.958;2022-11-15T13:53:12;99275.97;;;15.83;72.65
17230;BME280;8731;50.364;8.958;2022-11-15T13:57:40;99275.38;;;15.87;72.67
17230;BME280;8731;50.364;8.958;2022-11-15T14:02:12;99272.59;;;15.84;72.87
17230;BME280;8731;50.364;8.958;2022-11-15T14:06:44;99264.91;;;15.84;72.17
17230;BME280;8731;50.364;8.958;2022-11-15T14:11:13;99258.22;;;15.86;72.69
17230;BME280;8731;50.364;8.958;2022-11-15T14:15:38;99240.56;;;15.92;72.51
17230;BME280;8731;50.364;8.958;2022-11-15T14:20:01;99234.47;;;15.90;72.68
17230;BME280;8731;50.364;8.958;2022-11-15T14:24:44;99229.34;;;15.90;72.96
17230;BME280;8731;50.364;8.958;2022-11-15T14:29:23;99226.69;;;15.89;72.95
17230;BME280;8731;50.364;8.958;2022-11-15T14:33:46;99222.53;;;15.91;72.90
17230;BME280;8731;50.364;8.958;2022-11-15T14:38:09;99215.88;;;15.94;73.10
17230;BME280;8731;50.364;8.958;2022-11-15T14:42:32;99210.97;;;15.99;73.35
17230;BME280;8731;50.364;8.958;2022-11-15T14:46:54;99206.16;;;15.89;73.84
17230;BME280;8731;50.364;8.958;2022-11-15T14:51:18;99202.06;;;15.92;73.65
17230;BME280;8731;50.364;8.958;2022-11-15T14:55:40;99196.03;;;15.92;73.97
17230;BME280;8731;50.364;8.958;2022-11-15T15:00:06;99189.50;;;15.82;74.34
17230;BME280;8731;50.364;8.958;2022-11-15T15:04:33;99184.75;;;15.74;74.67
17230;BME280;8731;50.364;8.958;2022-11-15T15:08:55;99178.00;;;15.76;74.65
17230;BME280;8731;50.364;8.958;2022-11-15T15:13:20;99168.22;;;15.69;75.29
17230;BME280;8731;50.364;8.958;2022-11-15T15:17:45;99161.22;;;15.66;75.42
17230;BME280;8731;50.364;8.958;2022-11-15T15:22:11;99152.00;;;15.55;76.16
17230;BME280;8731;50.364;8.958;2022-11-15T15:26:36;99144.75;;;15.33;76.67
17230;BME280;8731;50.364;8.958;2022-11-15T15:30:59;99138.91;;;15.35;77.23
17230;BME280;8731;50.364;8.958;2022-11-15T15:35:23;99131.59;;;14.97;78.60
17230;BME280;8731;50.364;8.958;2022-11-15T15:39:52;99129.91;;;14.98;78.02
17230;BME280;8731;50.364;8.958;2022-11-15T15:44:16;99126.38;;;14.96;78.07
17230;BME280;8731;50.364;8.958;2022-11-15T15:48:38;99119.09;;;14.59;79.33
17230;BME280;8731;50.364;8.958;2022-11-15T15:53:03;99124.19;;;14.45;79.38
17230;BME280;8731;50.364;8.958;2022-11-15T15:57:28;99122.78;;;14.64;78.78
17230;BME280;8731;50.364;8.958;2022-11-15T16:01:50;99114.31;;;14.65;78.32
17230;BME280;8731;50.364;8.958;2022-11-15T16:06:33;99106.53;;;14.64;78.19
17230;BME280;8731;50.364;8.958;2022-11-15T16:10:59;99107.44;;;14.64;77.96
17230;BME280;8731;50.364;8.958;2022-11-15T16:15:24;99100.69;;;14.24;79.12
17230;BME280;8731;50.364;8.958;2022-11-15T16:19:50;99106.88;;;14.27;78.74
17230;BME280;8731;50.364;8.958;2022-11-15T16:24:12;99096.13;;;14.33;78.19
17230;BME280;8731;50.364;8.958;2022-11-15T16:28:36;99083.38;;;14.20;77.92
17230;BME280;8731;50.364;8.958;2022-11-15T16:32:58;99079.41;;;14.25;77.88
17230;BME280;8731;50.364;8.958;2022-11-15T16:37:22;99068.13;;;14.21;77.60
17230;BME280;8731;50.364;8.958;2022-11-15T16:41:45;99060.81;;;13.99;77.82
17230;BME280;8731;50.364;8.958;2022-11-15T16:46:13;99055.59;;;13.98;77.81
17230;BME280;8731;50.364;8.958;2022-11-15T16:50:38;99045.47;;;13.99;77.26
17230;BME280;8731;50.364;8.958;2022-11-15T16:55:00;99051.63;;;13.75;77.41
17230;BME280;8731;50.364;8.958;2022-11-15T16:59:22;99045.84;;;13.64;76.84
17230;BME280;8731;50.364;8.958;2022-11-15T17:03:46;99046.16;;;13.56;76.73
17230;BME280;8731;50.364;8.958;2022-11-15T17:08:08;99049.69;;;13.58;76.32
17230;BME280;8731;50.364;8.958;2022-11-15T17:12:30;99042.91;;;13.58;75.68
17230;BME280;8731;50.364;8.958;2022-11-15T17:16:53;99044.41;;;13.55;76.23
17230;BME280;8731;50.364;8.958;2022-11-15T17:21:19;99037.78;;;13.45;76.75
17230;BME280;8731;50.364;8.958;2022-11-15T17:25:42;99036.44;;;13.50;76.36
17230;BME280;8731;50.364;8.958;2022-11-15T17:30:06;99033.56;;;13.59;76.62
17230;BME280;8731;50.364;8.958;2022-11-15T17:34:30;99038.06;;;13.63;76.57
17230;BME280;8731;50.364;8.958;2022-11-15T17:38:54;99028.63;;;13.62;76.20
17230;BME280;8731;50.364;8.958;2022-11-15T17:43:16;99022.72;;;13.63;76.50
17230;BME280;8731;50.364;8.958;2022-11-15T17:47:39;99023.50;;;13.62;76.51
17230;BME280;8731;50.364;8.958;2022-11-15T17:52:01;99014.06;;;13.61;76.70
17230;BME280;8731;50.364;8.958;2022-11-15T17:56:26;99007.53;;;13.51;76.62
17230;BME280;8731;50.364;8.958;2022-11-15T18:00:49;99004.00;;;13.49;77.27
17230;BME280;8731;50.364;8.958;2022-11-15T18:05:12;99010.38;;;13.42;76.87
17230;BME280;8731;50.364;8.958;2022-11-15T18:09:34;99007.25;;;13.33;77.10
17230;BME280;8731;50.364;8.958;2022-11-15T18:14:00;99009.63;;;13.30;76.88
17230;BME280;8731;50.364;8.958;2022-11-15T18:18:24;99002.31;;;13.23;77.27
17230;BME280;8731;50.364;8.958;2022-11-15T18:22:47;98999.69;;;13.21;77.22
17230;BME280;8731;50.364;8.958;2022-11-15T18:27:12;98996.94;;;13.18;77.00
17230;BME280;8731;50.364;8.958;2022-11-15T18:31:36;98989.94;;;13.16;77.74
17230;BME280;8731;50.364;8.958;2022-11-15T18:36:00;98990.16;;;13.19;77.12
17230;BME280;8731;50.364;8.958;2022-11-15T18:40:23;98986.19;;;12.98;78.10
17230;BME280;8731;50.364;8.958;2022-11-15T18:44:45;98980.72;;;13.05;77.67
17230;BME280;8731;50.364;8.958;2022-11-15T18:49:10;98974.81;;;13.06;77.49
17230;BME280;8731;50.364;8.958;2022-11-15T18:53:35;98973.06;;;13.05;77.76
17230;BME280;8731;50.364;8.958;2022-11-15T18:57:58;98967.94;;;13.05;77.47
17230;BME280;8731;50.364;8.958;2022-11-15T19:02:21;98964.19;;;13.00;77.74
17230;BME280;8731;50.364;8.958;2022-11-15T19:06:46;98963.91;;;12.95;78.23
17230;BME280;8731;50.364;8.958;2022-11-15T19:11:12;98969.97;;;12.97;77.68
17230;BME280;8731;50.364;8.958;2022-11-15T19:15:35;98955.16;;;12.91;77.78
17230;BME280;8731;50.364;8.958;2022-11-15T19:19:57;98950.25;;;12.95;77.74
17230;BME280;8731;50.364;8.958;2022-11-15T19:24:21;98947.50;;;12.91;77.33
17230;BME280;8731;50.364;8.958;2022-11-15T19:28:43;98939.81;;;12.91;77.02
17230;BME280;8731;50.364;8.958;2022-11-15T19:33:10;98938.94;;;12.91;77.53
17230;BME280;8731;50.364;8.958;2022-11-15T19:37:33;98936.69;;;12.96;76.89
17230;BME280;8731;50.364;8.958;2022-11-15T19:41:57;98930.59;;;12.94;77.10
17230;BME280;8731;50.364;8.958;2022-11-15T19:46:21;98928.63;;;12.89;76.77
17230;BME280;8731;50.364;8.958;2022-11-15T19:50:44;98922.94;;;12.94;76.64
17230;BME280;8731;50.364;8.958;2022-11-15T19:55:07;98917.22;;;12.98;76.43
17230;BME280;8731;50.364;8.958;2022-11-15T19:59:31;98910.25;;;12.95;76.50
17230;BME280;8731;50.364;8.958;2022-11-15T20:03:55;98909.38;;;12.95;77.04
17230;BME280;8731;50.364;8.958;2022-11-15T20:08:18;98907.59;;;12.94;77.05
17230;BME280;8731;50.364;8.958;2022-11-15T20:12:41;98897.38;;;12.94;77.01
17230;BME280;8731;50.364;8.958;2022-11-15T20:17:05;98892.44;;;12.97;76.88
17230;BME280;8731;50.364;8.958;2022-11-15T20:21:27;98891.75;;;12.99;76.16
17230;BME280;8731;50.364;8.958;2022-11-15T20:25:50;98897.75;;;13.00;76.01
17230;BME280;8731;50.364;8.958;2022-11-15T20:30:13;98900.22;;;12.98;75.88
17230;BME280;8731;50.364;8.958;2022-11-15T20:34:37;98900.13;;;12.97;75.81
17230;BME280;8731;50.364;8.958;2022-11-15T20:38:59;98900.31;;;13.00;75.46
17230;BME280;8731;50.364;8.958;2022-11-15T20:43:21;98893.53;;;13.00;75.66
17230;BME280;8731;50.364;8.958;2022-11-15T20:47:44;98893.94;;;13.06;75.99
17230;BME280;8731;50.364;8.958;2022-11-15T20:52:07;98886.16;;;13.05;76.17
17230;BME280;8731;50.364;8.958;2022-11-15T20:56:30;98880.53;;;13.10;75.52
17230;BME280;8731;50.364;8.958;2022-11-15T21:00:54;98870.41;;;13.12;75.84
17230;BME280;8731;50.364;8.958;2022-11-15T21:05:16;98873.94;;;13.14;76.25
17230;BME280;8731;50.364;8.958;2022-11-15T21:09:41;98865.22;;;13.10;75.73
17230;BME280;8731;50.364;8.958;2022-11-15T21:14:21;98853.94;;;13.07;75.84
17230;BME280;8731;50.364;8.958;2022-11-15T21:18:43;98853.94;;;13.07;75.83
17230;BME280;8731;50.364;8.958;2022-11-15T21:23:07;98853.13;;;13.08;75.49
17230;BME280;8731;50.364;8.958;2022-11-15T21:27:31;98847.41;;;13.12;75.20
17230;BME280;8731;50.364;8.958;2022-11-15T21:31:53;98841.16;;;13.07;75.86
17230;BME280;8731;50.364;8.958;2022-11-15T21:36:16;98828.38;;;13.07;75.93
17230;BME280;8731;50.364;8.958;2022-11-15T21:40:38;98824.22;;;13.09;75.86
17230;BME280;8731;50.364;8.958;2022-11-15T21:45:02;98825.03;;;13.08;76.29
17230;BME280;8731;50.364;8.958;2022-11-15T21:49:25;98828.19;;;13.04;76.14
17230;BME280;8731;50.364;8.958;2022-11-15T21:53:48;98814.63;;;13.05;75.42
17230;BME280;8731;50.364;8.958;2022-11-15T21:58:14;98819.81;;;13.06;76.14
17230;BME280;8731;50.364;8.958;2022-11-15T22:02:37;98805.91;;;13.01;75.76
17230;BME280;8731;50.364;8.958;2022-11-15T22:07:01;98806.66;;;13.00;76.06
17230;BME280;8731;50.364;8.958;2022-11-15T22:11:23;98802.44;;;13.01;76.19
17230;BME280;8731;50.364;8.958;2022-11-15T22:15:46;98796.25;;;12.97;76.21
17230;BME280;8731;50.364;8.958;2022-11-15T22:20:12;98791.44;;;13.02;75.63
17230;BME280;8731;50.364;8.958;2022-11-15T22:24:35;98791.31;;;13.00;76.37
17230;BME280;8731;50.364;8.958;2022-11-15T22:28:57;98787.78;;;12.98;76.61
17230;BME280;8731;50.364;8.958;2022-11-15T22:33:21;98783.28;;;12.94;76.04
17230;BME280;8731;50.364;8.958;2022-11-15T22:37:46;98775.44;;;12.91;76.95
17230;BME280;8731;50.364;8.958;2022-11-15T22:42:08;98778.00;;;12.91;76.29
17230;BME280;8731;50.364;8.958;2022-11-15T22:46:31;98773.41;;;12.85;76.95
17230;BME280;8731;50.364;8.958;2022-11-15T22:50:53;98770.88;;;12.85;76.64
17230;BME280;8731;50.364;8.958;2022-11-15T22:55:17;98767.34;;;12.83;77.73
17230;BME280;8731;50.364;8.958;2022-11-15T22:59:40;98767.50;;;12.86;77.02
17230;BME280;8731;50.364;8.958;2022-11-15T23:04:02;98769.88;;;12.83;77.54
17230;BME280;8731;50.364;8.958;2022-11-15T23:08:25;98758.31;;;12.75;78.35
17230;BME280;8731;50.364;8.958;2022-11-15T23:12:48;98754.38;;;12.80;78.52
17230;BME280;8731;50.364;8.958;2022-11-15T23:17:29;98755.09;;;12.78;79.03
17230;BME280;8731;50.364;8.958;2022-11-15T23:21:52;98749.66;;;12.73;79.65
17230;BME280;8731;50.364;8.958;2022-11-15T23:26:32;98741.63;;;12.67;79.90
17230;BME280;8731;50.364;8.958;2022-11-15T23:31:01;98743.81;;;12.61;79.89
17230;BME280;8731;50.364;8.958;2022-11-15T23:35:41;98745.53;;;12.47;79.78
17230;BME280;8731;50.364;8.958;2022-11-15T23:40:13;98750.34;;;12.56;79.68
17230;BME280;8731;50.364;8.958;2022-11-15T23:44:37;98742.97;;;12.47;79.82
17230;BME280;8731;50.364;8.958;2022-11-15T23:49:01;98744.03;;;12.51;79.54
17230;BME280;8731;50.364;8.958;2022-11-15T23:53:24;98739.25;;;12.42;79.92
17230;BME280;8731;50.364;8.958;2022-11-15T23:57:46;98746.41;;;12.48;79.62
